sensor_id;sensor_type;location;lat;lon;timestamp;temperature;humidity
47861;HTU21D;33620;52.340;5.984;2023-03-01T00:00:38;0.79;71.02
47861;HTU21D;33620;52.340;5.984;2023-03-01T00:03:04;0.76;70.99
47861;HTU21D;33620;52.340;5.984;2023-03-01T00:05:29;0.74;71.03
47861;HTU21D;33620;52.340;5.984;2023-03-01T00:07:54;0.74;71.25
47861;HTU21D;33620;52.340;5.984;2023-03-01T00:10:20;0.69;71.16
47861;HTU21D;33620;52.340;5.984;2023-03-01T00:12:45;0.68;71.28
47861;HTU21D;33620;52.340;5.984;2023-03-01T00:15:10;0.65;71.29
47861;HTU21D;33620;52.340;5.984;2023-03-01T00:17:36;0.63;71.37
47861;HTU21D;33620;52.340;5.984;2023-03-01T00:20:01;0.61;71.27
47861;HTU21D;33620;52.340;5.984;2023-03-01T00:22:27;0.60;71.35
47861;HTU21D;33620;52.340;5.984;2023-03-01T00:24:53;0.59;71.45
47861;HTU21D;33620;52.340;5.984;2023-03-01T00:27:18;0.60;71.42
47861;HTU21D;33620;52.340;5.984;2023-03-01T00:29:44;0.58;71.47
47861;HTU21D;33620;52.340;5.984;2023-03-01T00:32:09;0.55;71.37
47861;HTU21D;33620;52.340;5.984;2023-03-01T00:34:34;0.51;71.34
47861;HTU21D;33620;52.340;5.984;2023-03-01T00:37:00;0.47;71.54
47861;HTU21D;33620;52.340;5.984;2023-03-01T00:39:30;0.44;71.62
47861;HTU21D;33620;52.340;5.984;2023-03-01T00:41:56;0.39;71.77
47861;HTU21D;33620;52.340;5.984;2023-03-01T00:44:21;0.36;71.72
47861;HTU21D;33620;52.340;5.984;2023-03-01T00:46:47;0.32;72.07
47861;HTU21D;33620;52.340;5.984;2023-03-01T00:49:12;0.32;72.19
47861;HTU21D;33620;52.340;5.984;2023-03-01T00:51:38;0.29;72.01
47861;HTU21D;33620;52.340;5.984;2023-03-01T00:54:07;0.27;72.00
47861;HTU21D;33620;52.340;5.984;2023-03-01T00:56:32;0.24;72.07
47861;HTU21D;33620;52.340;5.984;2023-03-01T00:58:58;0.20;72.00
47861;HTU21D;33620;52.340;5.984;2023-03-01T01:01:24;0.20;72.08
47861;HTU21D;33620;52.340;5.984;2023-03-01T01:06:18;0.16;72.06
47861;HTU21D;33620;52.340;5.984;2023-03-01T01:08:44;0.12;72.20
47861;HTU21D;33620;52.340;5.984;2023-03-01T01:11:10;0.13;72.36
47861;HTU21D;33620;52.340;5.984;2023-03-01T01:13:35;0.13;72.38
47861;HTU21D;33620;52.340;5.984;2023-03-01T01:16:01;0.13;72.48
47861;HTU21D;33620;52.340;5.984;2023-03-01T01:18:26;0.14;72.54
47861;HTU21D;33620;52.340;5.984;2023-03-01T01:20:52;0.13;72.59
47861;HTU21D;33620;52.340;5.984;2023-03-01T01:23:17;0.10;72.69
47861;HTU21D;33620;52.340;5.984;2023-03-01T01:25:42;0.06;72.70
47861;HTU21D;33620;52.340;5.984;2023-03-01T01:28:07;0.03;72.74
47861;HTU21D;33620;52.340;5.984;2023-03-01T01:30:33;0.01;72.90
47861;HTU21D;33620;52.340;5.984;2023-03-01T01:32:58;-0.03;73.15
47861;HTU21D;33620;52.340;5.984;2023-03-01T01:35:23;-0.05;73.27
47861;HTU21D;33620;52.340;5.984;2023-03-01T01:37:49;-0.05;73.40
47861;HTU21D;33620;52.340;5.984;2023-03-01T01:40:15;0.01;73.40
47861;HTU21D;33620;52.340;5.984;2023-03-01T01:42:40;0.01;73.10
47861;HTU21D;33620;52.340;5.984;2023-03-01T01:47:50;0.01;73.09
47861;HTU21D;33620;52.340;5.984;2023-03-01T01:50:16;-0.02;73.09
47861;HTU21D;33620;52.340;5.984;2023-03-01T01:52:43;0.04;73.18
47861;HTU21D;33620;52.340;5.984;2023-03-01T01:55:09;0.04;72.87
47861;HTU21D;33620;52.340;5.984;2023-03-01T02:00:08;-0.00;72.78
47861;HTU21D;33620;52.340;5.984;2023-03-01T02:02:33;-0.03;72.62
47861;HTU21D;33620;52.340;5.984;2023-03-01T02:05:03;-0.06;72.70
47861;HTU21D;33620;52.340;5.984;2023-03-01T02:07:35;-0.10;72.95
47861;HTU21D;33620;52.340;5.984;2023-03-01T02:10:02;-0.12;72.71
47861;HTU21D;33620;52.340;5.984;2023-03-01T02:12:27;-0.14;72.83
47861;HTU21D;33620;52.340;5.984;2023-03-01T02:14:53;-0.16;72.99
47861;HTU21D;33620;52.340;5.984;2023-03-01T02:17:18;-0.17;72.85
47861;HTU21D;33620;52.340;5.984;2023-03-01T02:22:37;-0.25;72.96
47861;HTU21D;33620;52.340;5.984;2023-03-01T02:25:04;-0.31;72.87
47861;HTU21D;33620;52.340;5.984;2023-03-01T02:27:33;-0.35;73.25
47861;HTU21D;33620;52.340;5.984;2023-03-01T02:30:02;-0.38;73.32
47861;HTU21D;33620;52.340;5.984;2023-03-01T02:32:27;-0.39;73.41
47861;HTU21D;33620;52.340;5.984;2023-03-01T02:34:53;-0.42;73.38
47861;HTU21D;33620;52.340;5.984;2023-03-01T02:37:18;-0.46;73.49
47861;HTU21D;33620;52.340;5.984;2023-03-01T02:39:50;-0.50;73.53
47861;HTU21D;33620;52.340;5.984;2023-03-01T02:42:18;-0.52;73.65
47861;HTU21D;33620;52.340;5.984;2023-03-01T02:44:45;-0.51;73.75
47861;HTU21D;33620;52.340;5.984;2023-03-01T02:47:10;-0.54;73.68
47861;HTU21D;33620;52.340;5.984;2023-03-01T02:49:36;-0.57;73.67
47861;HTU21D;33620;52.340;5.984;2023-03-01T02:52:17;-0.60;73.64
47861;HTU21D;33620;52.340;5.984;2023-03-01T02:54:56;-0.66;73.66
47861;HTU21D;33620;52.340;5.984;2023-03-01T02:57:23;-0.71;73.90
47861;HTU21D;33620;52.340;5.984;2023-03-01T02:59:48;-0.73;74.12
47861;HTU21D;33620;52.340;5.984;2023-03-01T03:02:21;-0.74;74.15
47861;HTU21D;33620;52.340;5.984;2023-03-01T03:05:01;-0.74;74.29
47861;HTU21D;33620;52.340;5.984;2023-03-01T03:07:26;-0.73;73.97
47861;HTU21D;33620;52.340;5.984;2023-03-01T03:09:52;-0.72;74.05
47861;HTU21D;33620;52.340;5.984;2023-03-01T03:12:17;-0.72;73.86
47861;HTU21D;33620;52.340;5.984;2023-03-01T03:14:42;-0.77;73.92
47861;HTU21D;33620;52.340;5.984;2023-03-01T03:17:07;-0.79;73.90
47861;HTU21D;33620;52.340;5.984;2023-03-01T03:19:33;-0.82;74.06
47861;HTU21D;33620;52.340;5.984;2023-03-01T03:21:58;-0.81;74.13
47861;HTU21D;33620;52.340;5.984;2023-03-01T03:24:24;-0.81;74.05
47861;HTU21D;33620;52.340;5.984;2023-03-01T03:26:49;-0.83;73.84
47861;HTU21D;33620;52.340;5.984;2023-03-01T03:29:14;-0.85;74.08
47861;HTU21D;33620;52.340;5.984;2023-03-01T03:31:40;-0.88;74.09
47861;HTU21D;33620;52.340;5.984;2023-03-01T03:34:05;-0.93;74.21
47861;HTU21D;33620;52.340;5.984;2023-03-01T03:36:30;-0.95;74.22
47861;HTU21D;33620;52.340;5.984;2023-03-01T03:38:55;-0.99;74.33
47861;HTU21D;33620;52.340;5.984;2023-03-01T03:41:21;-1.01;74.42
47861;HTU21D;33620;52.340;5.984;2023-03-01T03:43:46;-1.02;74.49
47861;HTU21D;33620;52.340;5.984;2023-03-01T03:46:12;-1.03;74.56
47861;HTU21D;33620;52.340;5.984;2023-03-01T03:48:39;-1.00;74.65
47861;HTU21D;33620;52.340;5.984;2023-03-01T03:51:05;-0.98;74.58
47861;HTU21D;33620;52.340;5.984;2023-03-01T03:53:30;-0.97;74.40
47861;HTU21D;33620;52.340;5.984;2023-03-01T03:55:56;-0.93;74.38
47861;HTU21D;33620;52.340;5.984;2023-03-01T03:58:22;-0.95;74.23
47861;HTU21D;33620;52.340;5.984;2023-03-01T04:00:49;-0.95;74.25
47861;HTU21D;33620;52.340;5.984;2023-03-01T04:03:15;-1.00;74.26
47861;HTU21D;33620;52.340;5.984;2023-03-01T04:05:41;-1.01;74.35
47861;HTU21D;33620;52.340;5.984;2023-03-01T04:08:07;-1.05;74.38
47861;HTU21D;33620;52.340;5.984;2023-03-01T04:10:33;-1.06;74.41
47861;HTU21D;33620;52.340;5.984;2023-03-01T04:12:59;-1.10;74.46
47861;HTU21D;33620;52.340;5.984;2023-03-01T04:15:24;-1.13;74.52
47861;HTU21D;33620;52.340;5.984;2023-03-01T04:17:51;-1.13;74.74
47861;HTU21D;33620;52.340;5.984;2023-03-01T04:20:27;-1.16;74.67
47861;HTU21D;33620;52.340;5.984;2023-03-01T04:22:57;-1.21;74.80
47861;HTU21D;33620;52.340;5.984;2023-03-01T04:25:23;-1.24;74.95
47861;HTU21D;33620;52.340;5.984;2023-03-01T04:27:49;-1.27;75.07
47861;HTU21D;33620;52.340;5.984;2023-03-01T04:30:14;-1.27;75.29
47861;HTU21D;33620;52.340;5.984;2023-03-01T04:32:40;-1.31;75.33
47861;HTU21D;33620;52.340;5.984;2023-03-01T04:35:05;-1.32;75.36
47861;HTU21D;33620;52.340;5.984;2023-03-01T04:37:31;-1.36;75.33
47861;HTU21D;33620;52.340;5.984;2023-03-01T04:39:56;-1.39;75.34
47861;HTU21D;33620;52.340;5.984;2023-03-01T04:42:22;-1.39;75.34
47861;HTU21D;33620;52.340;5.984;2023-03-01T04:44:47;-1.43;75.50
47861;HTU21D;33620;52.340;5.984;2023-03-01T04:47:16;-1.46;75.72
47861;HTU21D;33620;52.340;5.984;2023-03-01T04:49:41;-1.48;75.86
47861;HTU21D;33620;52.340;5.984;2023-03-01T04:52:07;-1.48;76.08
47861;HTU21D;33620;52.340;5.984;2023-03-01T04:54:33;-1.47;75.92
47861;HTU21D;33620;52.340;5.984;2023-03-01T04:56:58;-1.52;75.92
47861;HTU21D;33620;52.340;5.984;2023-03-01T04:59:24;-1.55;76.11
47861;HTU21D;33620;52.340;5.984;2023-03-01T05:01:53;-1.58;76.12
47861;HTU21D;33620;52.340;5.984;2023-03-01T05:04:21;-1.56;76.28
47861;HTU21D;33620;52.340;5.984;2023-03-01T05:06:46;-1.58;76.28
47861;HTU21D;33620;52.340;5.984;2023-03-01T05:09:12;-1.59;76.35
47861;HTU21D;33620;52.340;5.984;2023-03-01T05:11:37;-1.61;76.28
47861;HTU21D;33620;52.340;5.984;2023-03-01T05:14:03;-1.60;76.50
47861;HTU21D;33620;52.340;5.984;2023-03-01T05:16:29;-1.63;76.37
47861;HTU21D;33620;52.340;5.984;2023-03-01T05:18:55;-1.68;76.48
47861;HTU21D;33620;52.340;5.984;2023-03-01T05:21:21;-1.64;76.57
47861;HTU21D;33620;52.340;5.984;2023-03-01T05:23:47;-1.68;76.43
47861;HTU21D;33620;52.340;5.984;2023-03-01T05:26:12;-1.72;76.54
47861;HTU21D;33620;52.340;5.984;2023-03-01T05:28:38;-1.73;76.58
47861;HTU21D;33620;52.340;5.984;2023-03-01T05:31:03;-1.76;76.59
47861;HTU21D;33620;52.340;5.984;2023-03-01T05:33:35;-1.77;76.59
47861;HTU21D;33620;52.340;5.984;2023-03-01T05:36:00;-1.78;76.67
47861;HTU21D;33620;52.340;5.984;2023-03-01T05:38:26;-1.79;76.68
47861;HTU21D;33620;52.340;5.984;2023-03-01T05:40:51;-1.80;76.70
47861;HTU21D;33620;52.340;5.984;2023-03-01T05:43:16;-1.84;76.66
47861;HTU21D;33620;52.340;5.984;2023-03-01T05:45:42;-1.85;76.79
47861;HTU21D;33620;52.340;5.984;2023-03-01T05:48:08;-1.87;76.84
47861;HTU21D;33620;52.340;5.984;2023-03-01T05:50:35;-1.88;76.82
47861;HTU21D;33620;52.340;5.984;2023-03-01T05:53:02;-1.87;76.82
47861;HTU21D;33620;52.340;5.984;2023-03-01T05:55:28;-1.86;76.70
47861;HTU21D;33620;52.340;5.984;2023-03-01T05:57:54;-1.87;76.73
47861;HTU21D;33620;52.340;5.984;2023-03-01T06:00:20;-1.89;76.85
47861;HTU21D;33620;52.340;5.984;2023-03-01T06:02:47;-1.90;76.76
47861;HTU21D;33620;52.340;5.984;2023-03-01T06:05:13;-1.89;76.89
47861;HTU21D;33620;52.340;5.984;2023-03-01T06:07:38;-1.89;76.99
47861;HTU21D;33620;52.340;5.984;2023-03-01T06:10:04;-1.91;76.86
47861;HTU21D;33620;52.340;5.984;2023-03-01T06:12:34;-1.93;76.95
47861;HTU21D;33620;52.340;5.984;2023-03-01T06:14:59;-1.94;76.94
47861;HTU21D;33620;52.340;5.984;2023-03-01T06:17:25;-1.97;77.11
47861;HTU21D;33620;52.340;5.984;2023-03-01T06:19:50;-1.97;77.29
47861;HTU21D;33620;52.340;5.984;2023-03-01T06:22:16;-1.94;77.27
47861;HTU21D;33620;52.340;5.984;2023-03-01T06:24:41;-1.97;77.37
47861;HTU21D;33620;52.340;5.984;2023-03-01T06:27:06;-1.97;77.31
47861;HTU21D;33620;52.340;5.984;2023-03-01T06:29:31;-2.01;77.34
47861;HTU21D;33620;52.340;5.984;2023-03-01T06:31:57;-2.03;77.51
47861;HTU21D;33620;52.340;5.984;2023-03-01T06:34:22;-2.02;77.49
47861;HTU21D;33620;52.340;5.984;2023-03-01T06:36:47;-1.99;77.53
47861;HTU21D;33620;52.340;5.984;2023-03-01T06:39:13;-1.97;77.41
47861;HTU21D;33620;52.340;5.984;2023-03-01T06:41:38;-1.98;77.49
47861;HTU21D;33620;52.340;5.984;2023-03-01T06:44:03;-1.97;77.59
47861;HTU21D;33620;52.340;5.984;2023-03-01T06:46:29;-1.93;77.67
47861;HTU21D;33620;52.340;5.984;2023-03-01T06:48:54;-1.88;77.57
47861;HTU21D;33620;52.340;5.984;2023-03-01T06:51:19;-1.86;77.45
47861;HTU21D;33620;52.340;5.984;2023-03-01T06:53:45;-1.82;77.18
47861;HTU21D;33620;52.340;5.984;2023-03-01T06:56:10;-1.80;77.12
47861;HTU21D;33620;52.340;5.984;2023-03-01T06:58:36;-1.77;77.15
47861;HTU21D;33620;52.340;5.984;2023-03-01T07:01:05;-1.77;77.04
47861;HTU21D;33620;52.340;5.984;2023-03-01T07:03:30;-1.76;77.24
47861;HTU21D;33620;52.340;5.984;2023-03-01T07:05:55;-1.72;77.15
47861;HTU21D;33620;52.340;5.984;2023-03-01T07:08:21;-1.70;77.24
47861;HTU21D;33620;52.340;5.984;2023-03-01T07:10:46;-1.64;77.29
47861;HTU21D;33620;52.340;5.984;2023-03-01T07:13:11;-1.64;77.23
47861;HTU21D;33620;52.340;5.984;2023-03-01T07:15:37;-1.61;77.29
47861;HTU21D;33620;52.340;5.984;2023-03-01T07:18:02;-1.59;77.40
47861;HTU21D;33620;52.340;5.984;2023-03-01T07:20:27;-1.56;77.54
47861;HTU21D;33620;52.340;5.984;2023-03-01T07:22:53;-1.53;77.69
47861;HTU21D;33620;52.340;5.984;2023-03-01T07:25:19;-1.46;77.80
47861;HTU21D;33620;52.340;5.984;2023-03-01T07:27:48;-1.43;77.82
47861;HTU21D;33620;52.340;5.984;2023-03-01T07:30:13;-1.35;77.95
47861;HTU21D;33620;52.340;5.984;2023-03-01T07:32:39;-1.30;77.95
47861;HTU21D;33620;52.340;5.984;2023-03-01T07:35:04;-1.26;78.07
47861;HTU21D;33620;52.340;5.984;2023-03-01T07:37:29;-1.23;78.24
47861;HTU21D;33620;52.340;5.984;2023-03-01T07:39:55;-1.19;78.53
47861;HTU21D;33620;52.340;5.984;2023-03-01T07:42:20;-1.10;79.37
47861;HTU21D;33620;52.340;5.984;2023-03-01T07:44:45;-0.99;80.22
47861;HTU21D;33620;52.340;5.984;2023-03-01T07:47:10;-0.88;80.69
47861;HTU21D;33620;52.340;5.984;2023-03-01T07:49:36;-0.79;81.01
47861;HTU21D;33620;52.340;5.984;2023-03-01T07:52:01;-0.74;81.10
47861;HTU21D;33620;52.340;5.984;2023-03-01T07:54:26;-0.67;81.49
47861;HTU21D;33620;52.340;5.984;2023-03-01T07:56:52;-0.60;81.75
47861;HTU21D;33620;52.340;5.984;2023-03-01T07:59:17;-0.51;82.24
47861;HTU21D;33620;52.340;5.984;2023-03-01T08:01:42;-0.40;82.44
47861;HTU21D;33620;52.340;5.984;2023-03-01T08:04:08;-0.30;82.55
47861;HTU21D;33620;52.340;5.984;2023-03-01T08:06:34;-0.21;82.47
47861;HTU21D;33620;52.340;5.984;2023-03-01T08:08:59;-0.14;82.20
47861;HTU21D;33620;52.340;5.984;2023-03-01T08:11:24;-0.06;81.99
47861;HTU21D;33620;52.340;5.984;2023-03-01T08:13:50;0.03;81.78
47861;HTU21D;33620;52.340;5.984;2023-03-01T08:16:15;0.07;81.57
47861;HTU21D;33620;52.340;5.984;2023-03-01T08:18:40;0.12;81.41
47861;HTU21D;33620;52.340;5.984;2023-03-01T08:21:07;0.19;81.37
47861;HTU21D;33620;52.340;5.984;2023-03-01T08:23:33;0.29;81.27
47861;HTU21D;33620;52.340;5.984;2023-03-01T08:26:15;0.35;81.09
47861;HTU21D;33620;52.340;5.984;2023-03-01T08:28:40;0.42;80.98
47861;HTU21D;33620;52.340;5.984;2023-03-01T08:33:40;0.59;80.37
47861;HTU21D;33620;52.340;5.984;2023-03-01T08:36:05;0.65;79.77
47861;HTU21D;33620;52.340;5.984;2023-03-01T08:38:32;0.71;79.27
47861;HTU21D;33620;52.340;5.984;2023-03-01T08:41:02;0.77;78.74
47861;HTU21D;33620;52.340;5.984;2023-03-01T08:43:27;0.83;77.91
47861;HTU21D;33620;52.340;5.984;2023-03-01T08:45:53;0.91;77.49
47861;HTU21D;33620;52.340;5.984;2023-03-01T08:48:18;0.97;77.29
47861;HTU21D;33620;52.340;5.984;2023-03-01T08:50:44;1.05;77.27
47861;HTU21D;33620;52.340;5.984;2023-03-01T08:53:09;1.13;77.34
47861;HTU21D;33620;52.340;5.984;2023-03-01T08:55:34;1.20;77.09
47861;HTU21D;33620;52.340;5.984;2023-03-01T08:57:59;1.26;76.47
47861;HTU21D;33620;52.340;5.984;2023-03-01T09:00:25;1.34;75.99
47861;HTU21D;33620;52.340;5.984;2023-03-01T09:02:50;1.40;76.03
47861;HTU21D;33620;52.340;5.984;2023-03-01T09:05:15;1.45;75.78
47861;HTU21D;33620;52.340;5.984;2023-03-01T09:07:41;1.50;75.72
47861;HTU21D;33620;52.340;5.984;2023-03-01T09:10:06;1.56;75.74
47861;HTU21D;33620;52.340;5.984;2023-03-01T09:12:32;1.63;75.45
47861;HTU21D;33620;52.340;5.984;2023-03-01T09:14:57;1.69;75.54
47861;HTU21D;33620;52.340;5.984;2023-03-01T09:17:22;1.72;75.30
47861;HTU21D;33620;52.340;5.984;2023-03-01T09:19:47;1.76;75.20
47861;HTU21D;33620;52.340;5.984;2023-03-01T09:22:13;1.83;74.93
47861;HTU21D;33620;52.340;5.984;2023-03-01T09:24:38;1.87;74.81
47861;HTU21D;33620;52.340;5.984;2023-03-01T09:27:05;1.96;73.93
47861;HTU21D;33620;52.340;5.984;2023-03-01T09:29:34;2.01;73.98
47861;HTU21D;33620;52.340;5.984;2023-03-01T09:31:59;2.08;74.34
47861;HTU21D;33620;52.340;5.984;2023-03-01T09:34:25;2.15;74.83
47861;HTU21D;33620;52.340;5.984;2023-03-01T09:36:50;2.21;75.25
47861;HTU21D;33620;52.340;5.984;2023-03-01T09:39:16;2.30;75.32
47861;HTU21D;33620;52.340;5.984;2023-03-01T09:46:36;2.52;74.37
47861;HTU21D;33620;52.340;5.984;2023-03-01T09:49:09;2.57;74.68
47861;HTU21D;33620;52.340;5.984;2023-03-01T09:51:35;2.62;72.51
47861;HTU21D;33620;52.340;5.984;2023-03-01T09:54:04;2.74;72.58
47861;HTU21D;33620;52.340;5.984;2023-03-01T10:01:32;2.96;69.90
47861;HTU21D;33620;52.340;5.984;2023-03-01T10:04:11;3.02;70.23
47861;HTU21D;33620;52.340;5.984;2023-03-01T10:06:38;3.11;70.24
47861;HTU21D;33620;52.340;5.984;2023-03-01T10:09:10;3.18;70.52
47861;HTU21D;33620;52.340;5.984;2023-03-01T10:11:38;3.26;69.87
47861;HTU21D;33620;52.340;5.984;2023-03-01T10:16:34;3.38;66.99
47861;HTU21D;33620;52.340;5.984;2023-03-01T10:19:03;3.43;67.73
47861;HTU21D;33620;52.340;5.984;2023-03-01T10:21:29;3.49;67.91
47861;HTU21D;33620;52.340;5.984;2023-03-01T10:23:58;3.57;67.48
47861;HTU21D;33620;52.340;5.984;2023-03-01T10:26:33;3.62;67.14
47861;HTU21D;33620;52.340;5.984;2023-03-01T10:29:02;3.67;66.79
47861;HTU21D;33620;52.340;5.984;2023-03-01T10:31:44;3.75;65.56
47861;HTU21D;33620;52.340;5.984;2023-03-01T10:34:29;3.80;65.21
47861;HTU21D;33620;52.340;5.984;2023-03-01T10:37:01;3.84;63.64
47861;HTU21D;33620;52.340;5.984;2023-03-01T10:39:32;3.88;64.08
47861;HTU21D;33620;52.340;5.984;2023-03-01T10:41:59;3.91;64.11
47861;HTU21D;33620;52.340;5.984;2023-03-01T10:47:16;4.08;62.40
47861;HTU21D;33620;52.340;5.984;2023-03-01T10:50:00;4.14;62.42
47861;HTU21D;33620;52.340;5.984;2023-03-01T10:54:55;4.29;61.84
47861;HTU21D;33620;52.340;5.984;2023-03-01T10:57:31;4.34;61.99
47861;HTU21D;33620;52.340;5.984;2023-03-01T11:00:00;4.39;60.36
47861;HTU21D;33620;52.340;5.984;2023-03-01T11:02:29;4.45;60.43
47861;HTU21D;33620;52.340;5.984;2023-03-01T11:07:23;4.60;59.60
47861;HTU21D;33620;52.340;5.984;2023-03-01T11:09:49;4.63;59.48
47861;HTU21D;33620;52.340;5.984;2023-03-01T11:12:14;4.66;60.29
47861;HTU21D;33620;52.340;5.984;2023-03-01T11:14:50;4.69;59.47
47861;HTU21D;33620;52.340;5.984;2023-03-01T11:17:29;4.77;59.25
47861;HTU21D;33620;52.340;5.984;2023-03-01T11:22:35;4.87;58.36
47861;HTU21D;33620;52.340;5.984;2023-03-01T11:25:01;4.89;55.98
47861;HTU21D;33620;52.340;5.984;2023-03-01T11:27:34;4.88;56.36
47861;HTU21D;33620;52.340;5.984;2023-03-01T11:32:35;4.95;56.74
47861;HTU21D;33620;52.340;5.984;2023-03-01T11:35:05;5.02;57.04
47861;HTU21D;33620;52.340;5.984;2023-03-01T11:40:22;5.15;56.70
47861;HTU21D;33620;52.340;5.984;2023-03-01T11:42:50;5.18;56.45
47861;HTU21D;33620;52.340;5.984;2023-03-01T11:45:17;5.23;55.00
47861;HTU21D;33620;52.340;5.984;2023-03-01T11:50:43;5.36;54.32
47861;HTU21D;33620;52.340;5.984;2023-03-01T11:53:20;5.45;55.07
47861;HTU21D;33620;52.340;5.984;2023-03-01T11:56:51;5.48;54.89
47861;HTU21D;33620;52.340;5.984;2023-03-01T11:58:46;5.54;55.26
47861;HTU21D;33620;52.340;5.984;2023-03-01T12:06:37;5.68;54.05
47861;HTU21D;33620;52.340;5.984;2023-03-01T12:17:08;5.82;52.31
47861;HTU21D;33620;52.340;5.984;2023-03-01T12:29:47;5.95;51.70
47861;HTU21D;33620;52.340;5.984;2023-03-01T12:32:40;5.96;51.74
47861;HTU21D;33620;52.340;5.984;2023-03-01T12:35:31;6.02;52.65
47861;HTU21D;33620;52.340;5.984;2023-03-01T12:38:02;6.13;51.33
47861;HTU21D;33620;52.340;5.984;2023-03-01T12:48:27;6.22;51.56
47861;HTU21D;33620;52.340;5.984;2023-03-01T12:50:57;6.27;51.60
47861;HTU21D;33620;52.340;5.984;2023-03-01T12:53:25;6.28;50.55
47861;HTU21D;33620;52.340;5.984;2023-03-01T12:55:51;6.31;50.99
47861;HTU21D;33620;52.340;5.984;2023-03-01T12:58:27;6.39;50.35
47861;HTU21D;33620;52.340;5.984;2023-03-01T13:08:39;6.49;50.93
47861;HTU21D;33620;52.340;5.984;2023-03-01T13:11:18;6.49;50.76
47861;HTU21D;33620;52.340;5.984;2023-03-01T13:13:44;6.56;51.72
47861;HTU21D;33620;52.340;5.984;2023-03-01T13:21:35;6.66;50.79
47861;HTU21D;33620;52.340;5.984;2023-03-01T13:24:00;6.69;51.73
47861;HTU21D;33620;52.340;5.984;2023-03-01T13:26:25;6.70;51.34
47861;HTU21D;33620;52.340;5.984;2023-03-01T13:28:52;6.72;51.74
47861;HTU21D;33620;52.340;5.984;2023-03-01T13:33:44;6.85;52.10
47861;HTU21D;33620;52.340;5.984;2023-03-01T13:36:10;6.90;52.43
47861;HTU21D;33620;52.340;5.984;2023-03-01T13:41:03;6.91;50.40
47861;HTU21D;33620;52.340;5.984;2023-03-01T13:43:33;6.89;50.33
47861;HTU21D;33620;52.340;5.984;2023-03-01T13:45:59;6.93;50.82
47861;HTU21D;33620;52.340;5.984;2023-03-01T13:48:26;6.96;50.99
47861;HTU21D;33620;52.340;5.984;2023-03-01T13:50:54;6.95;51.04
47861;HTU21D;33620;52.340;5.984;2023-03-01T13:53:24;7.00;51.10
47861;HTU21D;33620;52.340;5.984;2023-03-01T13:55:58;7.11;51.46
47861;HTU21D;33620;52.340;5.984;2023-03-01T13:58:26;7.17;50.75
47861;HTU21D;33620;52.340;5.984;2023-03-01T14:00:55;7.15;49.83
47861;HTU21D;33620;52.340;5.984;2023-03-01T14:03:21;7.16;50.35
47861;HTU21D;33620;52.340;5.984;2023-03-01T14:08:36;7.18;49.60
47861;HTU21D;33620;52.340;5.984;2023-03-01T14:16:12;7.23;49.80
47861;HTU21D;33620;52.340;5.984;2023-03-01T14:21:17;7.27;48.73
47861;HTU21D;33620;52.340;5.984;2023-03-01T14:23:42;7.29;48.72
47861;HTU21D;33620;52.340;5.984;2023-03-01T14:26:08;7.32;48.37
47861;HTU21D;33620;52.340;5.984;2023-03-01T14:28:33;7.33;47.54
47861;HTU21D;33620;52.340;5.984;2023-03-01T14:31:02;7.31;47.38
47861;HTU21D;33620;52.340;5.984;2023-03-01T14:33:32;7.33;48.56
47861;HTU21D;33620;52.340;5.984;2023-03-01T14:36:10;7.37;48.44
47861;HTU21D;33620;52.340;5.984;2023-03-01T14:41:02;7.45;48.32
47861;HTU21D;33620;52.340;5.984;2023-03-01T14:43:28;7.55;48.57
47861;HTU21D;33620;52.340;5.984;2023-03-01T14:45:54;7.56;48.66
47861;HTU21D;33620;52.340;5.984;2023-03-01T14:48:20;7.47;48.05
47861;HTU21D;33620;52.340;5.984;2023-03-01T14:50:45;7.49;48.39
47861;HTU21D;33620;52.340;5.984;2023-03-01T14:53:17;7.57;48.52
47861;HTU21D;33620;52.340;5.984;2023-03-01T14:55:54;7.54;48.31
47861;HTU21D;33620;52.340;5.984;2023-03-01T14:58:20;7.53;47.93
47861;HTU21D;33620;52.340;5.984;2023-03-01T15:00:56;7.56;47.22
47861;HTU21D;33620;52.340;5.984;2023-03-01T15:05:50;7.64;47.43
47861;HTU21D;33620;52.340;5.984;2023-03-01T15:08:17;7.67;47.79
47861;HTU21D;33620;52.340;5.984;2023-03-01T15:10:54;7.65;47.55
47861;HTU21D;33620;52.340;5.984;2023-03-01T15:13:21;7.58;47.15
47861;HTU21D;33620;52.340;5.984;2023-03-01T15:15:47;7.62;47.90
47861;HTU21D;33620;52.340;5.984;2023-03-01T15:18:15;7.68;48.03
47861;HTU21D;33620;52.340;5.984;2023-03-01T15:20:41;7.68;47.56
47861;HTU21D;33620;52.340;5.984;2023-03-01T15:23:12;7.70;48.22
47861;HTU21D;33620;52.340;5.984;2023-03-01T15:25:43;7.74;48.50
47861;HTU21D;33620;52.340;5.984;2023-03-01T15:28:18;7.73;47.15
47861;HTU21D;33620;52.340;5.984;2023-03-01T15:30:45;7.73;47.07
47861;HTU21D;33620;52.340;5.984;2023-03-01T15:35:46;7.70;47.12
47861;HTU21D;33620;52.340;5.984;2023-03-01T15:41:22;7.64;47.05
47861;HTU21D;33620;52.340;5.984;2023-03-01T15:43:47;7.62;47.18
47861;HTU21D;33620;52.340;5.984;2023-03-01T15:48:51;7.53;46.80
47861;HTU21D;33620;52.340;5.984;2023-03-01T15:51:17;7.49;46.50
47861;HTU21D;33620;52.340;5.984;2023-03-01T15:53:48;7.46;46.84
47861;HTU21D;33620;52.340;5.984;2023-03-01T15:56:14;7.43;47.06
47861;HTU21D;33620;52.340;5.984;2023-03-01T15:58:39;7.43;47.12
47861;HTU21D;33620;52.340;5.984;2023-03-01T16:01:08;7.46;47.59
47861;HTU21D;33620;52.340;5.984;2023-03-01T16:03:37;7.45;47.56
47861;HTU21D;33620;52.340;5.984;2023-03-01T16:06:03;7.38;47.10
47861;HTU21D;33620;52.340;5.984;2023-03-01T16:08:28;7.37;47.16
47861;HTU21D;33620;52.340;5.984;2023-03-01T16:10:54;7.40;47.71
47861;HTU21D;33620;52.340;5.984;2023-03-01T16:13:19;7.40;48.05
47861;HTU21D;33620;52.340;5.984;2023-03-01T16:15:44;7.41;48.36
47861;HTU21D;33620;52.340;5.984;2023-03-01T16:18:10;7.47;48.36
47861;HTU21D;33620;52.340;5.984;2023-03-01T16:20:36;7.50;48.53
47861;HTU21D;33620;52.340;5.984;2023-03-01T16:23:03;7.59;48.49
47861;HTU21D;33620;52.340;5.984;2023-03-01T16:25:29;7.67;48.31
47861;HTU21D;33620;52.340;5.984;2023-03-01T16:27:55;7.79;48.16
47861;HTU21D;33620;52.340;5.984;2023-03-01T16:30:22;7.90;47.42
47861;HTU21D;33620;52.340;5.984;2023-03-01T16:32:47;7.99;46.73
47861;HTU21D;33620;52.340;5.984;2023-03-01T16:35:14;8.05;47.04
47861;HTU21D;33620;52.340;5.984;2023-03-01T16:37:39;8.02;46.41
47861;HTU21D;33620;52.340;5.984;2023-03-01T16:40:06;7.96;47.15
47861;HTU21D;33620;52.340;5.984;2023-03-01T16:42:36;7.84;47.48
47861;HTU21D;33620;52.340;5.984;2023-03-01T16:45:02;7.64;47.96
47861;HTU21D;33620;52.340;5.984;2023-03-01T16:47:28;7.45;48.45
47861;HTU21D;33620;52.340;5.984;2023-03-01T16:49:53;7.32;49.01
47861;HTU21D;33620;52.340;5.984;2023-03-01T16:52:19;7.22;49.86
47861;HTU21D;33620;52.340;5.984;2023-03-01T16:54:44;7.10;50.05
47861;HTU21D;33620;52.340;5.984;2023-03-01T16:57:09;6.97;50.56
47861;HTU21D;33620;52.340;5.984;2023-03-01T16:59:35;6.86;50.82
47861;HTU21D;33620;52.340;5.984;2023-03-01T17:02:01;6.79;51.38
47861;HTU21D;33620;52.340;5.984;2023-03-01T17:04:26;6.70;51.52
47861;HTU21D;33620;52.340;5.984;2023-03-01T17:06:52;6.64;51.69
47861;HTU21D;33620;52.340;5.984;2023-03-01T17:09:17;6.57;51.83
47861;HTU21D;33620;52.340;5.984;2023-03-01T17:11:42;6.53;52.20
47861;HTU21D;33620;52.340;5.984;2023-03-01T17:14:08;6.46;52.40
47861;HTU21D;33620;52.340;5.984;2023-03-01T17:16:33;6.43;52.59
47861;HTU21D;33620;52.340;5.984;2023-03-01T17:19:00;6.38;52.72
47861;HTU21D;33620;52.340;5.984;2023-03-01T17:21:25;6.33;52.98